Time;durP1;ratioP1;P1;durP2;ratioP2;P2;SDS_P1;SDS_P2;PMS_P1;PMS_P2;Temp;Humidity;BMP_temperature;BMP_pressure;BME280_temperature;BME280_humidity;BME280_pressure;Samples;Min_cycle;Max_cycle;Signal;HPM_P1;HPM_P2
2022/06/13 00:00:59;;;;;;;8.05;2.10;;;15.60;99.90;;;;;;5073252;28;20039;-78
2022/06/13 00:03:24;;;;;;;6.97;2.00;;;15.60;99.90;;;;;;5088125;28;20801;-78
2022/06/13 00:05:50;;;;;;;4.80;1.98;;;15.70;99.90;;;;;;5071118;28;20059;-78
2022/06/13 00:08:16;;;;;;;5.95;1.77;;;15.60;99.90;;;;;;5106586;28;20047;-78
2022/06/13 00:10:42;;;;;;;4.70;2.00;;;15.60;99.90;;;;;;5073360;28;20052;-78
2022/06/13 00:13:07;;;;;;;9.05;1.92;;;15.60;99.90;;;;;;5089276;28;20127;-78
2022/06/13 00:15:33;;;;;;;5.45;1.80;;;15.60;99.90;;;;;;5084959;28;20098;-78
2022/06/13 00:17:59;;;;;;;4.20;1.80;;;15.60;99.90;;;;;;5089261;28;20078;-78
2022/06/13 00:20:25;;;;;;;4.20;2.00;;;15.60;99.90;;;;;;5107204;28;20754;-78
2022/06/13 00:22:50;;;;;;;5.05;1.67;;;15.60;99.90;;;;;;5074016;28;20040;-78
2022/06/13 00:25:16;;;;;;;7.13;1.95;;;15.60;99.90;;;;;;5089692;28;20073;-78
2022/06/13 00:27:42;;;;;;;6.18;1.90;;;15.60;99.90;;;;;;5086431;28;20039;-79
2022/06/13 00:30:09;;;;;;;6.90;2.25;;;15.60;99.90;;;;;;5090849;28;20483;-78
2022/06/13 00:32:35;;;;;;;6.60;2.50;;;15.60;99.90;;;;;;5075439;28;20051;-79
2022/06/13 00:35:01;;;;;;;7.72;1.98;;;15.60;99.90;;;;;;5106710;28;20485;-78
2022/06/13 00:37:28;;;;;;;6.15;2.10;;;15.60;99.90;;;;;;5082397;28;20105;-78
2022/06/13 00:39:53;;;;;;;5.10;1.83;;;15.60;99.90;;;;;;5103079;28;20044;-78
2022/06/13 00:42:22;;;;;;;7.60;1.88;;;15.60;99.90;;;;;;5090029;27;20043;-78
2022/06/13 00:45:15;;;;;;;6.72;1.80;;;15.60;99.90;;;;;;5090460;27;20126;-78
2022/06/13 00:47:42;;;;;;;6.53;1.98;;;15.60;99.90;;;;;;5126354;27;20047;-79
2022/06/13 00:50:14;;;;;;;6.93;2.03;;;15.60;99.90;;;;;;5108138;27;20054;-77
2022/06/13 00:52:44;;;;;;;6.68;1.75;;;15.60;99.90;;;;;;5090454;27;20086;-79
2022/06/13 00:55:12;;;;;;;6.65;1.77;;;15.60;99.90;;;;;;5086516;27;20528;-79
2022/06/13 00:57:38;;;;;;;5.88;2.00;;;15.50;99.90;;;;;;5091435;27;20043;-79
2022/06/13 01:00:09;;;;;;;6.75;1.88;;;15.60;99.90;;;;;;5108314;27;20104;-81
2022/06/13 01:02:39;;;;;;;5.35;1.60;;;15.50;99.90;;;;;;5086311;27;20103;-79
2022/06/13 01:05:05;;;;;;;6.53;2.20;;;15.50;99.90;;;;;;5090832;27;20055;-80
2022/06/13 01:07:32;;;;;;;8.35;2.10;;;15.50;99.90;;;;;;5075384;27;20043;-79
2022/06/13 01:12:42;;;;;;;6.22;2.10;;;15.50;99.90;;;;;;5091241;27;20059;-79
2022/06/13 01:15:29;;;;;;;7.13;2.00;;;15.50;99.90;;;;;;5091698;27;20548;-78
2022/06/13 01:18:19;;;;;;;6.50;2.05;;;15.50;99.90;;;;;;5090698;27;20532;-79
2022/06/13 01:21:15;;;;;;;5.10;2.05;;;15.50;99.90;;;;;;5103792;27;20092;-79
2022/06/13 01:23:59;;;;;;;4.35;1.70;;;15.50;99.90;;;;;;5106869;27;20499;-79
2022/06/13 01:26:47;;;;;;;5.18;2.45;;;15.50;99.90;;;;;;5107477;27;20506;-79
2022/06/13 01:29:32;;;;;;;8.18;2.00;;;15.50;99.90;;;;;;5091854;27;20395;-79
2022/06/13 01:32:12;;;;;;;5.72;1.83;;;15.50;99.90;;;;;;5107504;27;20036;-79
2022/06/13 01:34:38;;;;;;;7.32;2.15;;;15.50;99.90;;;;;;5092232;27;20042;-79
2022/06/13 01:37:27;;;;;;;6.82;1.77;;;15.50;99.90;;;;;;5106789;27;20047;-79
2022/06/13 01:40:05;;;;;;;5.80;1.63;;;15.50;99.90;;;;;;5101959;27;20059;-78
2022/06/13 01:42:34;;;;;;;6.45;1.80;;;15.50;99.90;;;;;;5089909;27;20074;-79
2022/06/13 01:45:24;;;;;;;8.48;2.05;;;15.50;99.90;;;;;;5105534;27;20051;-79
2022/06/13 01:47:56;;;;;;;6.78;2.35;;;15.50;99.90;;;;;;5108625;27;20491;-79
2022/06/13 01:50:30;;;;;;;6.03;2.30;;;15.50;99.90;;;;;;5107057;27;20056;-79
2022/06/13 01:53:17;;;;;;;6.90;1.90;;;15.50;99.90;;;;;;5106581;27;20117;-78
2022/06/13 01:55:58;;;;;;;9.45;2.35;;;15.50;99.90;;;;;;5084942;27;20058;-79
2022/06/13 01:58:24;;;;;;;4.63;1.90;;;15.40;99.90;;;;;;5107117;27;20046;-78
2022/06/13 02:00:59;;;;;;;4.30;1.45;;;15.40;99.90;;;;;;5089750;27;20399;-78
2022/06/13 02:03:45;;;;;;;4.93;1.48;;;15.40;99.90;;;;;;5106469;27;20047;-80
2022/06/13 02:06:19;;;;;;;4.18;1.45;;;15.40;99.90;;;;;;5108645;27;20084;-79
2022/06/13 02:08:59;;;;;;;5.63;1.50;;;15.30;99.90;;;;;;5106578;27;20052;-79
2022/06/13 02:11:43;;;;;;;6.68;2.10;;;15.30;99.90;;;;;;5089406;27;20048;-78
2022/06/13 02:14:10;;;;;;;5.82;1.30;;;15.30;99.90;;;;;;5107038;28;20047;-78
2022/06/13 02:16:58;;;;;;;3.85;1.15;;;15.20;99.90;;;;;;5083699;27;20500;-78
2022/06/13 02:19:34;;;;;;;3.38;1.35;;;15.20;99.90;;;;;;5088679;27;20057;-79
2022/06/13 02:22:06;;;;;;;5.82;1.60;;;15.20;99.90;;;;;;5090795;27;20055;-79
2022/06/13 02:24:37;;;;;;;5.82;1.83;;;15.10;99.90;;;;;;5106501;27;20043;-78
2022/06/13 02:27:06;;;;;;;6.13;1.52;;;15.10;99.90;;;;;;5103254;27;20452;-79
2022/06/13 02:29:47;;;;;;;4.07;1.40;;;15.10;99.90;;;;;;5084551;28;20047;-79
2022/06/13 02:32:31;;;;;;;3.47;1.52;;;15.00;99.90;;;;;;5107267;28;20069;-79
2022/06/13 02:35:03;;;;;;;3.85;1.35;;;15.10;99.90;;;;;;5101065;28;20453;-79
2022/06/13 02:37:39;;;;;;;5.22;1.40;;;15.00;99.90;;;;;;5090557;28;20126;-78
2022/06/13 02:40:11;;;;;;;4.70;1.70;;;15.00;99.90;;;;;;5088962;28;20046;-80
2022/06/13 02:42:52;;;;;;;5.45;1.60;;;15.00;99.90;;;;;;5084188;28;20058;-79
2022/06/13 02:45:21;;;;;;;4.82;1.83;;;15.00;99.90;;;;;;5085133;28;20051;-79
2022/06/13 02:47:56;;;;;;;5.43;1.83;;;15.00;99.90;;;;;;5087966;28;20062;-80
2022/06/13 02:50:22;;;;;;;4.30;1.80;;;15.00;99.90;;;;;;5105666;28;20058;-79
2022/06/13 02:53:03;;;;;;;6.35;1.75;;;15.00;99.90;;;;;;5107312;28;20047;-79
2022/06/13 02:55:40;;;;;;;4.75;1.70;;;15.00;99.90;;;;;;5102160;28;20042;-78
2022/06/13 02:58:31;;;;;;;6.47;2.10;;;15.00;99.90;;;;;;5106659;28;20114;-78
2022/06/13 03:01:10;;;;;;;6.40;1.83;;;14.90;99.90;;;;;;5105050;28;20501;-79
2022/06/13 03:04:00;;;;;;;5.93;1.73;;;14.90;99.90;;;;;;5083682;28;20061;-79
2022/06/13 03:06:31;;;;;;;8.43;1.83;;;14.90;99.90;;;;;;5088863;28;20198;-78
2022/06/13 03:09:05;;;;;;;6.00;2.03;;;14.90;99.90;;;;;;5089354;28;20036;-79
2022/06/13 03:11:38;;;;;;;6.20;2.10;;;14.90;99.90;;;;;;5105209;28;20059;-79
2022/06/13 03:14:12;;;;;;;5.05;2.10;;;14.80;99.90;;;;;;5106759;28;20061;-79
2022/06/13 03:16:51;;;;;;;5.43;1.83;;;14.80;99.90;;;;;;5089192;28;20062;-79
2022/06/13 03:19:37;;;;;;;5.13;2.00;;;14.80;99.90;;;;;;5083682;28;20051;-78
2022/06/13 03:22:34;;;;;;;5.53;1.90;;;14.80;99.90;;;;;;5085984;28;20126;-79
2022/06/13 03:25:10;;;;;;;5.45;2.22;;;14.70;99.90;;;;;;5080567;28;20051;-79
2022/06/13 03:27:49;;;;;;;5.88;1.92;;;14.70;99.90;;;;;;5084426;28;20150;-79
2022/06/13 03:30:19;;;;;;;6.40;2.20;;;14.70;99.90;;;;;;5107759;27;20055;-79
2022/06/13 03:35:39;;;;;;;5.82;1.90;;;14.70;99.90;;;;;;5110274;27;20130;-79
2022/06/13 03:38:10;;;;;;;4.72;1.73;;;14.70;99.90;;;;;;5092950;27;20054;-79
2022/06/13 03:40:40;;;;;;;6.70;2.50;;;14.70;99.90;;;;;;5093181;27;20504;-79
2022/06/13 03:43:15;;;;;;;8.02;2.20;;;14.70;99.90;;;;;;5104835;28;20797;-78
2022/06/13 03:45:55;;;;;;;6.25;2.42;;;14.70;99.90;;;;;;5108111;28;20050;-79
2022/06/13 03:48:39;;;;;;;5.22;2.17;;;14.70;99.90;;;;;;5089171;28;20055;-79
2022/06/13 03:51:28;;;;;;;8.90;2.20;;;14.70;99.90;;;;;;5106163;28;20051;-79
2022/06/13 03:54:06;;;;;;;6.07;1.88;;;14.70;99.90;;;;;;5122595;27;20189;-79
2022/06/13 03:57:14;;;;;;;5.55;1.95;;;14.70;99.90;;;;;;5107377;28;20051;-79
2022/06/13 03:59:54;;;;;;;3.63;1.55;;;14.60;99.90;;;;;;5090078;28;20039;-78
2022/06/13 04:02:25;;;;;;;4.28;1.42;;;14.60;99.90;;;;;;5087738;28;20055;-79
2022/06/13 04:04:53;;;;;;;4.45;1.50;;;14.60;99.90;;;;;;5104338;28;20130;-79
2022/06/13 04:07:21;;;;;;;3.67;1.52;;;14.60;99.90;;;;;;5089889;28;20047;-79
2022/06/13 04:09:52;;;;;;;5.15;1.55;;;14.60;99.90;;;;;;5086848;28;20085;-79
2022/06/13 04:12:28;;;;;;;5.85;1.40;;;14.60;99.90;;;;;;5102300;28;20078;-78
2022/06/13 04:15:31;;;;;;;4.35;1.30;;;14.60;99.90;;;;;;5090803;28;20146;-78
2022/06/13 04:18:23;;;;;;;2.80;1.17;;;14.60;99.90;;;;;;5088036;28;20047;-79
2022/06/13 04:21:10;;;;;;;4.32;1.50;;;14.60;99.90;;;;;;5104424;28;20120;-78
2022/06/13 04:23:50;;;;;;;6.82;1.52;;;14.70;99.90;;;;;;5101383;28;20040;-78
2022/06/13 04:26:49;;;;;;;5.30;1.40;;;14.70;99.90;;;;;;5082692;28;20689;-78
2022/06/13 04:29:25;;;;;;;2.90;1.40;;;14.70;99.90;;;;;;5084402;28;20408;-79
2022/06/13 04:31:55;;;;;;;4.38;1.52;;;14.80;99.90;;;;;;5083673;28;20047;-78
2022/06/13 04:34:27;;;;;;;4.93;1.85;;;14.80;99.90;;;;;;5104844;28;20047;-78
2022/06/13 04:36:53;;;;;;;4.60;1.35;;;14.80;99.90;;;;;;5105163;28;20058;-78
2022/06/13 04:39:27;;;;;;;4.78;1.35;;;14.80;99.90;;;;;;5105179;28;20519;-78
2022/06/13 04:41:55;;;;;;;4.20;1.63;;;14.90;99.90;;;;;;5088625;28;20054;-78
2022/06/13 04:44:24;;;;;;;4.63;1.25;;;14.80;99.90;;;;;;5102973;28;20082;-78
2022/06/13 04:46:51;;;;;;;6.20;1.50;;;14.90;99.90;;;;;;5084255;28;20051;-79
2022/06/13 04:49:35;;;;;;;4.72;1.45;;;14.90;99.90;;;;;;5083434;28;20112;-79
2022/06/13 04:52:06;;;;;;;3.58;1.38;;;15.10;99.90;;;;;;5106048;28;20472;-80
2022/06/13 04:54:51;;;;;;;7.43;1.50;;;15.10;99.90;;;;;;5106655;28;20081;-79
2022/06/13 04:57:18;;;;;;;7.97;1.65;;;15.20;99.90;;;;;;5084080;28;20066;-79
2022/06/13 04:59:46;;;;;;;6.50;1.60;;;15.20;99.90;;;;;;5066696;28;20135;-79
2022/06/13 05:02:15;;;;;;;6.05;1.75;;;15.20;99.90;;;;;;5104137;28;20869;-78
2022/06/13 05:04:41;;;;;;;7.18;2.05;;;15.30;99.90;;;;;;5087516;28;20075;-78
2022/06/13 05:07:14;;;;;;;3.72;1.20;;;15.30;99.90;;;;;;5072647;28;20126;-78
2022/06/13 05:10:02;;;;;;;5.07;1.38;;;15.20;99.90;;;;;;5086671;28;20049;-78
2022/06/13 05:12:40;;;;;;;5.68;1.50;;;15.20;99.90;;;;;;5104278;28;20059;-77
2022/06/13 05:15:18;;;;;;;3.45;1.30;;;15.10;99.90;;;;;;5104267;28;20036;-78
2022/06/13 05:17:53;;;;;;;5.10;1.20;;;14.90;99.90;;;;;;5089103;28;20141;-78
2022/06/13 05:20:46;;;;;;;10.50;1.50;;;14.80;99.90;;;;;;5103883;28;20047;-77
2022/06/13 05:23:27;;;;;;;7.20;1.45;;;14.60;99.90;;;;;;5102947;28;20044;-77
2022/06/13 05:25:58;;;;;;;4.30;1.23;;;14.50;99.90;;;;;;5103770;28;20060;-77
2022/06/13 05:28:30;;;;;;;4.28;1.70;;;14.50;99.90;;;;;;5104166;28;20044;-77
2022/06/13 05:31:00;;;;;;;4.72;1.10;;;14.40;99.90;;;;;;5102938;28;20074;-77
2022/06/13 05:33:33;;;;;;;3.75;1.38;;;14.40;99.90;;;;;;5099436;28;20141;-77
2022/06/13 05:36:02;;;;;;;6.32;1.55;;;14.40;99.90;;;;;;5083201;28;20184;-77
2022/06/13 05:38:50;;;;;;;2.72;1.20;;;14.40;99.90;;;;;;5103479;28;20051;-77
2022/06/13 05:41:16;;;;;;;5.28;1.33;;;14.50;99.90;;;;;;5102313;28;20044;-77
2022/06/13 05:43:42;;;;;;;4.35;1.50;;;14.50;99.90;;;;;;5102714;28;20048;-77
2022/06/13 05:46:14;;;;;;;6.25;1.50;;;14.60;99.90;;;;;;5085867;28;20039;-78
2022/06/13 05:48:40;;;;;;;4.45;1.20;;;14.60;99.90;;;;;;5102896;28;20058;-78
2022/06/13 05:51:06;;;;;;;5.60;1.25;;;14.70;99.90;;;;;;5069983;28;20040;-79
2022/06/13 05:53:31;;;;;;;4.93;1.30;;;14.80;99.90;;;;;;5053172;28;20035;-79
2022/06/13 05:56:00;;;;;;;6.18;1.40;;;14.90;99.90;;;;;;5080849;28;20043;-82
2022/06/13 05:58:26;;;;;;;6.50;1.52;;;15.00;99.90;;;;;;5083897;28;20048;-82
2022/06/13 06:01:00;;;;;;;5.97;1.60;;;15.00;99.90;;;;;;5103511;28;20780;-79
2022/06/13 06:03:27;;;;;;;4.82;1.45;;;15.00;99.90;;;;;;5099821;28;20047;-81
2022/06/13 06:05:54;;;;;;;4.32;1.33;;;15.00;99.90;;;;;;5079615;28;20044;-80
2022/06/13 06:08:22;;;;;;;6.32;1.42;;;15.00;99.90;;;;;;5065832;28;20058;-81
2022/06/13 06:10:52;;;;;;;5.05;1.30;;;15.00;99.90;;;;;;5079236;28;20047;-80
2022/06/13 06:13:19;;;;;;;6.75;1.45;;;15.00;99.90;;;;;;5116326;27;20518;-80
2022/06/13 06:15:46;;;;;;;5.38;1.33;;;15.10;99.90;;;;;;5082668;28;20075;-80
2022/06/13 06:18:13;;;;;;;7.20;1.38;;;15.10;99.90;;;;;;5080895;28;20134;-80
2022/06/13 06:20:39;;;;;;;4.80;1.13;;;15.10;99.90;;;;;;5085061;28;20122;-80
2022/06/13 06:23:06;;;;;;;7.47;1.70;;;15.20;99.90;;;;;;5102136;28;20104;-80
2022/06/13 06:25:32;;;;;;;4.43;1.27;;;15.10;99.90;;;;;;5068287;28;20075;-78
2022/06/13 06:27:58;;;;;;;7.47;1.50;;;15.10;99.90;;;;;;5070533;28;20074;-79
2022/06/13 06:30:27;;;;;;;5.93;1.30;;;15.20;99.90;;;;;;5086051;28;20047;-79
2022/06/13 06:32:56;;;;;;;5.43;1.35;;;15.30;99.90;;;;;;5102234;28;20097;-79
2022/06/13 06:35:24;;;;;;;4.20;1.20;;;15.30;99.90;;;;;;5083478;28;20054;-80
2022/06/13 06:37:52;;;;;;;4.30;1.30;;;15.40;99.90;;;;;;5086008;28;20044;-78
2022/06/13 06:40:21;;;;;;;6.30;1.50;;;15.40;99.90;;;;;;5060384;28;20063;-80
2022/06/13 06:42:47;;;;;;;4.28;1.08;;;15.50;99.90;;;;;;5089092;28;20046;-80
2022/06/13 06:45:13;;;;;;;5.03;1.30;;;15.70;99.90;;;;;;5073253;28;20044;-81
2022/06/13 06:47:39;;;;;;;5.63;1.45;;;15.80;99.90;;;;;;5086066;28;20128;-80
2022/06/13 06:50:08;;;;;;;5.55;1.20;;;15.70;99.90;;;;;;5074336;28;20711;-80
2022/06/13 06:52:34;;;;;;;6.93;1.77;;;15.80;99.90;;;;;;5085377;28;20046;-81
2022/06/13 07:00:28;;;;;;;3.40;1.23;;;16.00;99.90;;;;;;5092954;28;20051;-80
2022/06/13 07:02:56;;;;;;;4.25;1.10;;;16.00;99.90;;;;;;5069394;28;20043;-80
2022/06/13 07:05:21;;;;;;;5.25;1.23;;;16.00;99.90;;;;;;5092538;27;20066;-80
2022/06/13 07:07:48;;;;;;;5.35;1.20;;;16.00;99.90;;;;;;5110194;27;20396;-80
2022/06/13 07:10:15;;;;;;;5.57;1.38;;;16.10;99.90;;;;;;5092534;27;20112;-80
2022/06/13 07:12:41;;;;;;;6.22;1.38;;;16.20;99.90;;;;;;5110239;27;20122;-80
2022/06/13 07:15:07;;;;;;;5.60;1.45;;;16.30;99.90;;;;;;5092765;27;20043;-80
2022/06/13 07:17:33;;;;;;;7.13;1.67;;;16.50;99.90;;;;;;5108924;27;20047;-79
2022/06/13 07:19:59;;;;;;;6.70;1.30;;;16.70;99.90;;;;;;5075816;27;20099;-79
2022/06/13 07:22:25;;;;;;;9.63;1.65;;;16.90;99.90;;;;;;5091249;27;20050;-79
2022/06/13 07:24:51;;;;;;;4.93;1.13;;;17.10;99.90;;;;;;5090211;27;20047;-79
2022/06/13 07:27:18;;;;;;;7.97;1.60;;;17.20;99.90;;;;;;5089912;27;20701;-79
2022/06/13 07:29:44;;;;;;;6.18;1.23;;;17.40;99.90;;;;;;5072744;27;20088;-80
2022/06/13 07:32:19;;;;;;;9.85;1.40;;;17.50;99.90;;;;;;5084930;27;20051;-80
2022/06/13 07:34:48;;;;;;;4.22;1.60;;;17.60;99.90;;;;;;5085122;27;20051;-80
2022/06/13 07:38:16;;;;;;;7.18;1.70;;;17.80;99.90;;;;;;5090361;27;20043;-80
2022/06/13 07:40:06;;;;;;;9.32;1.55;;;17.90;99.90;;;;;;5109617;27;20061;-79
2022/06/13 07:42:37;;;;;;;6.32;1.40;;;18.00;99.90;;;;;;5108488;27;20459;-79
2022/06/13 07:45:05;;;;;;;7.78;1.40;;;18.10;99.90;;;;;;5105019;27;20051;-80
2022/06/13 07:47:32;;;;;;;7.10;1.40;;;18.10;99.90;;;;;;5089197;27;20053;-80
2022/06/13 07:49:58;;;;;;;5.07;1.35;;;18.30;99.90;;;;;;5104269;27;20517;-79
2022/06/13 07:52:23;;;;;;;5.43;1.33;;;18.30;99.90;;;;;;5072178;27;20039;-80
2022/06/13 07:54:49;;;;;;;6.25;1.33;;;18.40;99.90;;;;;;5089153;27;20104;-79
2022/06/13 07:57:15;;;;;;;8.02;1.73;;;18.60;99.90;;;;;;5075799;27;20047;-79
2022/06/13 07:59:41;;;;;;;6.45;1.45;;;18.50;99.90;;;;;;5090454;27;20050;-79
2022/06/13 08:02:15;;;;;;;4.93;1.10;;;18.30;99.90;;;;;;5091173;27;20593;-79
2022/06/13 08:04:41;;;;;;;4.82;1.23;;;18.10;99.90;;;;;;5108767;27;20116;-79
2022/06/13 08:07:10;;;;;;;5.65;1.45;;;18.00;99.90;;;;;;5108515;27;20168;-80
2022/06/13 08:09:36;;;;;;;4.03;1.27;;;17.80;99.90;;;;;;5084517;27;20134;-79
2022/06/13 08:12:02;;;;;;;8.43;1.95;;;17.70;99.90;;;;;;5074659;27;20047;-79
2022/06/13 08:14:28;;;;;;;6.35;1.55;;;18.00;99.90;;;;;;5091011;27;20087;-80
2022/06/13 08:16:55;;;;;;;7.50;1.63;;;18.20;99.90;;;;;;5074943;27;20047;-80
2022/06/13 08:19:21;;;;;;;3.63;1.30;;;18.20;99.90;;;;;;5085801;27;20035;-80
2022/06/13 08:21:46;;;;;;;3.90;1.50;;;18.10;99.90;;;;;;5077374;27;20054;-79
2022/06/13 08:24:12;;;;;;;5.60;1.50;;;17.90;99.90;;;;;;5073454;27;20557;-80
2022/06/13 08:26:38;;;;;;;4.15;1.33;;;18.00;99.90;;;;;;5103959;27;20043;-80
2022/06/13 08:29:05;;;;;;;5.25;1.63;;;18.20;99.90;;;;;;5090042;27;20051;-79
2022/06/13 08:31:32;;;;;;;4.15;1.42;;;18.40;99.90;;;;;;5091444;27;20051;-79
2022/06/13 08:33:57;;;;;;;8.40;1.50;;;18.60;99.90;;;;;;5090976;27;20124;-79
2022/06/13 08:36:23;;;;;;;3.80;1.00;;;18.90;99.90;;;;;;5108690;27;20775;-79
2022/06/13 08:38:49;;;;;;;7.13;1.55;;;19.20;99.90;;;;;;5072795;27;20086;-79
2022/06/13 08:41:36;;;;;;;3.17;1.38;;;19.40;99.90;;;;;;5055391;27;20080;-79
2022/06/13 08:44:11;;;;;;;4.22;1.20;;;19.40;99.90;;;;;;5107711;27;20059;-79
2022/06/13 08:46:58;;;;;;;8.20;2.03;;;19.60;99.90;;;;;;5089546;27;20125;-79
2022/06/13 08:49:42;;;;;;;4.80;1.33;;;19.50;99.90;;;;;;5084620;27;20385;-79
2022/06/13 08:52:16;;;;;;;4.63;1.67;;;19.60;99.90;;;;;;5108171;27;20043;-80
2022/06/13 08:54:47;;;;;;;5.97;1.60;;;19.80;99.90;;;;;;5087401;27;20039;-79
2022/06/13 08:57:13;;;;;;;4.45;1.33;;;19.80;99.90;;;;;;5106288;27;20079;-79
2022/06/13 09:00:08;;;;;;;6.88;1.23;;;19.90;99.90;;;;;;5085041;27;20467;-79
2022/06/13 09:03:01;;;;;;;7.63;1.50;;;20.20;99.90;;;;;;5097961;27;20051;-80
2022/06/13 09:05:33;;;;;;;6.22;1.40;;;20.00;99.90;;;;;;5097090;27;20126;-79
2022/06/13 09:08:26;;;;;;;7.53;1.65;;;19.60;99.90;;;;;;5106766;27;20566;-79
2022/06/13 09:11:03;;;;;;;5.97;1.50;;;19.40;99.90;;;;;;5086599;27;20039;-79
2022/06/13 09:13:37;;;;;;;2.67;1.20;;;19.50;99.90;;;;;;5106124;27;20043;-79
2022/06/13 09:16:11;;;;;;;5.47;1.30;;;19.80;99.90;;;;;;5108105;27;20057;-79
2022/06/13 09:18:50;;;;;;;9.13;1.90;;;20.10;99.90;;;;;;5090804;27;20403;-79
2022/06/13 09:21:22;;;;;;;5.70;1.45;;;20.10;99.90;;;;;;5084301;27;20128;-79
2022/06/13 09:23:54;;;;;;;5.70;1.40;;;20.30;99.90;;;;;;5084430;27;20035;-79
2022/06/13 09:26:46;;;;;;;6.25;1.65;;;20.20;99.90;;;;;;5091342;27;20101;-79
2022/06/13 09:29:30;;;;;;;7.40;1.42;;;20.00;99.90;;;;;;5105856;27;20058;-82
2022/06/13 09:32:00;;;;;;;4.35;1.50;;;20.00;99.90;;;;;;5106998;27;20120;-82
2022/06/13 09:34:42;;;;;;;4.90;1.30;;;19.90;99.90;;;;;;5087691;27;20043;-83
2022/06/13 09:37:12;;;;;;;5.60;1.50;;;19.90;99.90;;;;;;5085236;27;20072;-84
2022/06/13 09:39:39;;;;;;;4.90;1.20;;;20.00;99.90;;;;;;5101732;27;20134;-83
2022/06/13 09:42:24;;;;;;;6.60;1.38;;;19.90;99.90;;;;;;5089917;27;20047;-82
2022/06/13 09:45:02;;;;;;;6.57;1.48;;;20.10;99.90;;;;;;5103964;27;20055;-84
2022/06/13 09:47:58;;;;;;;7.60;1.45;;;20.00;99.90;;;;;;5103685;27;20058;-86
2022/06/13 09:50:32;;;;;;;5.28;1.50;;;20.10;99.90;;;;;;5085285;27;20065;-84
2022/06/13 09:53:15;;;;;;;4.78;1.20;;;19.90;99.90;;;;;;5106827;27;20039;-86
2022/06/13 09:55:44;;;;;;;4.93;1.35;;;19.60;99.90;;;;;;5103985;27;20070;-85
2022/06/13 09:58:41;;;;;;;5.70;1.30;;;19.30;99.90;;;;;;5087648;27;20047;-84
2022/06/13 10:01:21;;;;;;;9.20;1.77;;;19.40;99.90;;;;;;5106367;27;20046;-85
2022/06/13 10:04:05;;;;;;;6.20;1.52;;;19.80;99.90;;;;;;5109725;27;20054;-85
2022/06/13 10:06:53;;;;;;;6.93;1.67;;;19.90;99.90;;;;;;5107992;27;20051;-84
2022/06/13 10:09:34;;;;;;;7.47;1.63;;;20.00;99.90;;;;;;5084719;27;20058;-86
2022/06/13 10:12:22;;;;;;;5.90;1.70;;;20.30;99.90;;;;;;5083598;27;20062;-85
2022/06/13 10:15:06;;;;;;;5.82;1.52;;;20.80;99.90;;;;;;5103950;27;20632;-85
2022/06/13 10:17:58;;;;;;;6.22;1.52;;;20.70;99.90;;;;;;5084376;27;20045;-85
2022/06/13 10:21:00;;;;;;;4.00;1.65;;;20.70;99.90;;;;;;5046727;27;20058;-85
2022/06/13 10:23:54;;;;;;;7.18;1.42;;;20.70;99.90;;;;;;5058513;27;20059;-85
2022/06/13 10:26:41;;;;;;;5.10;1.50;;;20.70;99.90;;;;;;5089831;27;20039;-85
2022/06/13 10:29:44;;;;;;;6.53;1.80;;;20.60;99.90;;;;;;5104049;27;20043;-84
2022/06/13 10:32:28;;;;;;;4.72;1.33;;;20.80;99.90;;;;;;5103394;27;20055;-86
2022/06/13 10:35:03;;;;;;;7.18;1.42;;;20.90;99.90;;;;;;5083016;27;20047;-86
2022/06/13 10:37:51;;;;;;;6.82;1.50;;;21.20;99.90;;;;;;5087099;27;20399;-84
2022/06/13 10:40:17;;;;;;;5.22;1.38;;;21.40;99.90;;;;;;5103979;27;20310;-85
2022/06/13 10:42:43;;;;;;;5.85;1.40;;;21.70;99.90;;;;;;5068313;28;20480;-86
2022/06/13 10:45:14;;;;;;;7.80;1.70;;;21.90;99.90;;;;;;5090355;28;20439;-85
2022/06/13 10:48:05;;;;;;;4.30;1.33;;;22.00;99.40;;;;;;5087860;28;20047;-85
2022/06/13 10:50:55;;;;;;;5.53;1.45;;;21.80;98.10;;;;;;5085752;28;20043;-85
2022/06/13 10:53:35;;;;;;;6.78;1.70;;;21.90;98.40;;;;;;5097802;28;20083;-81
2022/06/13 10:56:03;;;;;;;7.13;1.33;;;22.00;99.30;;;;;;5107236;28;20050;-81
2022/06/13 10:58:39;;;;;;;5.22;1.42;;;22.10;99.60;;;;;;5108186;28;20082;-80
2022/06/13 11:01:09;;;;;;;5.60;1.33;;;22.10;98.80;;;;;;5106671;28;20050;-81
2022/06/13 11:03:35;;;;;;;5.65;1.50;;;22.20;98.90;;;;;;5106237;28;20039;-81
2022/06/13 11:06:07;;;;;;;3.35;1.27;;;22.10;98.90;;;;;;5073108;28;20045;-81
2022/06/13 11:08:33;;;;;;;6.43;1.83;;;22.10;98.90;;;;;;5091454;28;20055;-82
2022/06/13 11:11:05;;;;;;;4.80;1.50;;;22.10;99.30;;;;;;5074320;28;20043;-81
2022/06/13 11:13:39;;;;;;;5.82;1.52;;;22.50;98.70;;;;;;5089031;28;20384;-81
2022/06/13 11:22:38;;;;;;;6.22;1.50;;;21.30;99.40;;;;;;5106767;28;20047;-81
2022/06/13 11:25:10;;;;;;;7.07;1.65;;;20.80;99.90;;;;;;5084481;28;20492;-82
2022/06/13 11:27:39;;;;;;;4.90;1.45;;;20.20;99.90;;;;;;5104553;28;20035;-82
2022/06/13 11:30:30;;;;;;;6.43;1.30;;;19.90;99.90;;;;;;5088369;28;20035;-81
2022/06/13 11:33:02;;;;;;;5.28;1.50;;;19.80;99.90;;;;;;5085646;28;20051;-81
2022/06/13 11:35:37;;;;;;;4.30;1.33;;;20.10;99.90;;;;;;5105746;28;20043;-81
2022/06/13 11:38:26;;;;;;;6.38;1.85;;;19.80;99.90;;;;;;5086836;28;20129;-82
2022/06/13 11:41:29;;;;;;;4.95;1.60;;;19.80;99.90;;;;;;5091628;28;20097;-81
2022/06/13 11:44:00;;;;;;;6.85;1.83;;;20.10;99.90;;;;;;5116353;28;20059;-81
2022/06/13 11:46:44;;;;;;;3.85;1.27;;;20.20;99.90;;;;;;5088961;28;20396;-81
2022/06/13 11:49:15;;;;;;;4.38;1.30;;;20.10;99.90;;;;;;5087147;28;20134;-81
2022/06/13 11:51:48;;;;;;;4.55;1.27;;;20.50;99.90;;;;;;5091055;27;20050;-81
2022/06/13 11:54:38;;;;;;;5.30;1.50;;;20.70;99.90;;;;;;5092719;27;20051;-81
2022/06/13 11:57:26;;;;;;;5.30;1.40;;;20.60;99.90;;;;;;5105884;27;20046;-81
2022/06/13 12:00:07;;;;;;;8.68;1.77;;;20.80;99.90;;;;;;5109605;27;20050;-81
2022/06/13 12:02:39;;;;;;;7.20;1.80;;;20.70;99.90;;;;;;5087091;27;20134;-82
2022/06/13 12:05:34;;;;;;;6.28;1.45;;;21.20;99.90;;;;;;5088326;27;20055;-81
2022/06/13 12:08:14;;;;;;;4.15;1.40;;;21.60;99.70;;;;;;5091504;27;20522;-81
2022/06/13 12:10:42;;;;;;;5.50;1.70;;;22.00;99.60;;;;;;5107851;27;20053;-81
2022/06/13 12:13:15;;;;;;;4.82;1.40;;;22.10;99.20;;;;;;5074777;27;20031;-81
2022/06/13 12:15:53;;;;;;;5.13;1.20;;;22.00;98.80;;;;;;5086015;27;20133;-81
2022/06/13 12:18:49;;;;;;;6.03;1.33;;;21.90;99.00;;;;;;5090770;27;20050;-82
2022/06/13 12:21:40;;;;;;;5.28;1.25;;;22.10;99.30;;;;;;5087761;27;20074;-81
2022/06/13 12:24:24;;;;;;;7.25;1.83;;;22.30;98.60;;;;;;5085625;27;20753;-81
2022/06/13 12:27:19;;;;;;;5.07;1.65;;;22.40;98.60;;;;;;5088514;27;20058;-82
2022/06/13 12:30:06;;;;;;;3.03;1.38;;;22.50;98.00;;;;;;5089760;27;20057;-82
2022/06/13 12:32:38;;;;;;;6.05;1.67;;;22.80;98.20;;;;;;5085169;27;20079;-82
2022/06/13 12:35:34;;;;;;;5.10;1.77;;;23.10;98.10;;;;;;5084934;27;20126;-81
2022/06/13 12:38:15;;;;;;;4.25;1.30;;;23.60;97.90;;;;;;5086264;27;20079;-82
2022/06/13 12:40:53;;;;;;;6.85;1.65;;;23.50;97.80;;;;;;5091885;27;20054;-88
2022/06/13 12:43:57;;;;;;;7.97;1.85;;;22.90;97.60;;;;;;5089184;27;20043;-82
2022/06/13 12:46:31;;;;;;;5.53;1.58;;;22.40;97.40;;;;;;5084877;27;20163;-82
2022/06/13 12:49:11;;;;;;;5.65;1.60;;;22.00;98.20;;;;;;5101335;27;20042;-82
2022/06/13 12:51:55;;;;;;;6.55;1.63;;;21.70;99.10;;;;;;5106095;27;20372;-81
2022/06/13 12:54:54;;;;;;;8.05;1.70;;;22.30;99.50;;;;;;5106111;27;20683;-82
2022/06/13 12:57:29;;;;;;;6.78;1.67;;;22.50;97.20;;;;;;5089460;27;20051;-82
2022/06/13 13:00:22;;;;;;;4.53;1.45;;;22.80;97.90;;;;;;5083565;27;20051;-82
2022/06/13 13:02:53;;;;;;;8.10;1.70;;;22.60;97.80;;;;;;5107224;27;20062;-81
2022/06/13 13:05:22;;;;;;;5.07;1.50;;;22.70;97.60;;;;;;5106385;27;20047;-82
2022/06/13 13:08:05;;;;;;;5.93;1.52;;;22.90;97.40;;;;;;5106879;27;20051;-82
2022/06/13 13:10:42;;;;;;;7.80;1.88;;;23.20;97.90;;;;;;5087847;27;20078;-82
2022/06/13 13:13:20;;;;;;;6.93;1.70;;;23.50;97.60;;;;;;5085437;27;20596;-82
2022/06/13 13:16:22;;;;;;;7.88;1.75;;;23.30;97.00;;;;;;5090266;27;20051;-82
2022/06/13 13:18:57;;;;;;;6.60;1.90;;;22.90;97.30;;;;;;5097384;27;20046;-82
2022/06/13 13:21:44;;;;;;;4.20;1.17;;;22.50;98.10;;;;;;5107976;27;20043;-82
2022/06/13 13:24:12;;;;;;;5.60;1.67;;;22.00;98.30;;;;;;5106855;27;20047;-82
2022/06/13 13:27:03;;;;;;;5.63;1.67;;;22.00;98.00;;;;;;5087709;27;20422;-82
2022/06/13 13:29:44;;;;;;;5.50;1.70;;;22.00;97.30;;;;;;5106659;27;20039;-82
2022/06/13 13:32:09;;;;;;;5.75;1.63;;;22.30;97.70;;;;;;5084745;27;20130;-82
2022/06/13 13:34:44;;;;;;;6.50;1.75;;;22.60;97.70;;;;;;5104952;27;20491;-82
2022/06/13 13:37:19;;;;;;;4.18;1.40;;;22.50;97.50;;;;;;5101339;27;20075;-82
2022/06/13 13:40:14;;;;;;;5.38;1.30;;;22.70;97.00;;;;;;5105097;27;20118;-82
2022/06/13 13:42:49;;;;;;;5.45;1.70;;;22.90;96.80;;;;;;5106594;27;20122;-81
2022/06/13 13:45:39;;;;;;;5.63;1.60;;;22.90;96.90;;;;;;5104769;27;20056;-80
2022/06/13 13:48:34;;;;;;;4.82;1.40;;;23.00;96.40;;;;;;5100768;27;20556;-81